createdAt,value
2023-01-29T00:05:13.032Z,101766.94
2023-01-29T00:10:23.069Z,101768.38
2023-01-29T00:15:24.502Z,101768.56
2023-01-29T00:20:25.929Z,101751.84
2023-01-29T00:25:27.368Z,101756.22
2023-01-29T00:30:28.791Z,101743.38
2023-01-29T00:35:30.543Z,101735.56
2023-01-29T00:40:52.131Z,101745.81
2023-01-29T00:45:53.511Z,101741.28
2023-01-29T00:50:54.957Z,101743.22
2023-01-29T00:55:56.459Z,101741.44
2023-01-29T01:00:57.939Z,101755.88
2023-01-29T01:06:04.671Z,101758.31
2023-01-29T01:11:07.068Z,101755.53
2023-01-29T01:16:12.885Z,101748.53
2023-01-29T01:21:14.386Z,101742.50
2023-01-29T01:26:15.801Z,101745.38
2023-01-29T01:31:17.324Z,101741.81
2023-01-29T01:36:18.858Z,101743.03
2023-01-29T01:41:21.872Z,101726.81
2023-01-29T01:46:25.263Z,101725.34
2023-01-29T01:51:28.883Z,101718.59
2023-01-29T01:56:40.524Z,101735.03
2023-01-29T02:01:50.014Z,101727.34
2023-01-29T02:07:12.557Z,101706.13
2023-01-29T02:12:15.953Z,101704.56
2023-01-29T02:17:19.435Z,101702.81
2023-01-29T02:22:28.271Z,101702.00
2023-01-29T02:27:48.700Z,101702.66
2023-01-29T02:33:07.602Z,101704.31
2023-01-29T02:38:34.419Z,101713.91
2023-01-29T02:43:38.835Z,101707.19
2023-01-29T02:48:54.015Z,101709.34
2023-01-29T02:54:04.119Z,101715.75
2023-01-29T02:59:14.661Z,101717.75
2023-01-29T03:04:24.682Z,101721.91
2023-01-29T03:09:36.414Z,101715.00
2023-01-29T03:14:58.636Z,101714.66
2023-01-29T03:20:02.073Z,101707.38
2023-01-29T03:25:24.438Z,101698.88
2023-01-29T03:30:48.071Z,101712.13
2023-01-29T03:36:08.815Z,101706.88
2023-01-29T03:41:25.796Z,101704.34
2023-01-29T03:46:32.086Z,101689.66
2023-01-29T03:52:00.537Z,101694.75
2023-01-29T03:57:12.418Z,101702.88
2023-01-29T04:02:31.550Z,101701.16
2023-01-29T04:07:37.996Z,101689.97
2023-01-29T04:12:48.164Z,101677.72
2023-01-29T04:17:52.689Z,101672.75
2023-01-29T04:23:06.655Z,101667.44
2023-01-29T04:28:25.948Z,101662.03
2023-01-29T04:33:38.201Z,101660.25
2023-01-29T04:39:20.042Z,101651.69
2023-01-29T04:44:53.572Z,101635.19
2023-01-29T04:50:03.764Z,101625.56
2023-01-29T04:55:18.190Z,101625.38
2023-01-29T05:00:27.635Z,101605.56
2023-01-29T05:05:30.615Z,101593.00
2023-01-29T05:10:33.973Z,101601.22
2023-01-29T05:15:40.238Z,101605.47
2023-01-29T05:20:43.562Z,101586.41
2023-01-29T05:25:46.738Z,101600.00
2023-01-29T05:30:51.145Z,101586.09
2023-01-29T05:35:53.204Z,101590.63
2023-01-29T05:40:55.058Z,101588.88
2023-01-29T05:45:59.004Z,101581.66
2023-01-29T05:51:01.948Z,101572.91
2023-01-29T05:56:04.196Z,101570.31
2023-01-29T06:01:16.844Z,101581.81
2023-01-29T06:06:18.335Z,101581.56
2023-01-29T06:11:20.563Z,101576.56
2023-01-29T06:16:22.199Z,101600.63
2023-01-29T06:21:23.663Z,101607.59
2023-01-29T06:26:25.085Z,101611.09
2023-01-29T06:31:38.199Z,101603.88
2023-01-29T06:36:41.762Z,101599.59
2023-01-29T06:41:43.314Z,101609.91
2023-01-29T06:46:44.814Z,101608.16
2023-01-29T06:51:47.004Z,101625.50
2023-01-29T06:56:48.709Z,101655.16
2023-01-29T07:01:50.215Z,101667.31
2023-01-29T07:06:51.730Z,101672.41
2023-01-29T07:11:53.182Z,101682.03
2023-01-29T07:16:54.595Z,101687.13
2023-01-29T07:21:56.083Z,101690.78
2023-01-29T07:26:57.616Z,101685.38
2023-01-29T07:31:59.147Z,101687.38
2023-01-29T07:37:00.664Z,101673.84
2023-01-29T07:42:02.460Z,101672.19
2023-01-29T07:47:03.904Z,101684.03
2023-01-29T07:52:05.417Z,101666.41
2023-01-29T07:57:06.836Z,101658.09
2023-01-29T08:02:09.431Z,101650.63
2023-01-29T08:07:10.847Z,101640.97
2023-01-29T08:12:12.289Z,101622.72
2023-01-29T08:17:14.365Z,101604.97
2023-01-29T08:22:16.540Z,101604.13
2023-01-29T08:27:18.354Z,101604.91
2023-01-29T08:32:19.800Z,101608.31
2023-01-29T08:37:21.292Z,101611.69
2023-01-29T08:42:22.746Z,101620.38
2023-01-29T08:47:24.207Z,101623.78
2023-01-29T08:52:25.632Z,101630.91
2023-01-29T08:57:28.410Z,101634.03
2023-01-29T09:02:29.907Z,101633.47
2023-01-29T09:07:31.391Z,101606.38
2023-01-29T09:12:33.995Z,101613.31
2023-01-29T09:17:35.339Z,101624.50
2023-01-29T09:22:36.838Z,101611.31
2023-01-29T09:27:38.367Z,101598.41
2023-01-29T09:32:53.163Z,101624.50
2023-01-29T09:37:55.544Z,101614.47
2023-01-29T09:43:07.819Z,101616.41
2023-01-29T09:48:12.048Z,101599.56
2023-01-29T09:53:45.929Z,101596.06
2023-01-29T09:58:47.730Z,101585.88
2023-01-29T10:04:29.804Z,101576.00
2023-01-29T10:09:55.452Z,101580.91
2023-01-29T10:15:30.665Z,101589.31
2023-01-29T10:21:17.176Z,101586.50
2023-01-29T10:26:23.349Z,101576.00
2023-01-29T10:31:32.553Z,101579.44
2023-01-29T10:36:46.400Z,101564.00
2023-01-29T10:42:21.910Z,101557.63
2023-01-29T10:47:54.296Z,101549.28
2023-01-29T10:53:10.996Z,101524.25
2023-01-29T10:58:30.405Z,101504.56
2023-01-29T11:03:33.453Z,101506.06
2023-01-29T11:08:41.731Z,101497.47
2023-01-29T11:13:45.799Z,101480.34
2023-01-29T11:18:59.410Z,101480.41
2023-01-29T11:24:12.690Z,101471.50
2023-01-29T11:29:52.785Z,101466.25
2023-01-29T11:35:03.600Z,101444.63
2023-01-29T11:40:20.618Z,101434.25
2023-01-29T11:45:32.216Z,101445.53
2023-01-29T11:50:33.883Z,101462.31
2023-01-29T11:55:49.689Z,101456.03
2023-01-29T12:00:55.265Z,101450.94
2023-01-29T12:06:01.141Z,101434.00
2023-01-29T12:11:15.165Z,101419.09
2023-01-29T12:16:28.211Z,101401.50
2023-01-29T12:22:22.277Z,101374.38
2023-01-29T12:27:34.197Z,101373.81
2023-01-29T12:32:43.037Z,101362.28
2023-01-29T12:38:32.246Z,101369.56
2023-01-29T12:43:43.777Z,101370.72
2023-01-29T12:48:46.566Z,101354.06
2023-01-29T12:53:56.836Z,101334.50
2023-01-29T12:59:01.631Z,101353.44
2023-01-29T13:04:20.517Z,101347.38
2023-01-29T13:09:33.288Z,101344.34
2023-01-29T13:14:49.205Z,101331.25
2023-01-29T13:19:53.742Z,101311.31
2023-01-29T13:25:04.679Z,101318.34
2023-01-29T13:30:08.003Z,101317.59
2023-01-29T13:35:13.998Z,101318.69
2023-01-29T13:40:25.787Z,101333.13
2023-01-29T13:45:43.549Z,101315.81
2023-01-29T13:50:46.581Z,101337.56
2023-01-29T13:55:48.354Z,101312.59
2023-01-29T14:00:50.794Z,101307.66
2023-01-29T14:05:55.257Z,101306.50
2023-01-29T14:11:15.357Z,101300.56
2023-01-29T14:16:16.760Z,101311.56
2023-01-29T14:21:35.693Z,101299.09
2023-01-29T14:26:43.725Z,101290.31
2023-01-29T14:31:52.072Z,101304.88
2023-01-29T14:36:57.392Z,101301.06
2023-01-29T14:41:59.797Z,101302.41
2023-01-29T14:47:01.128Z,101303.88
2023-01-29T14:52:02.909Z,101296.56
2023-01-29T14:57:10.697Z,101295.06
2023-01-29T15:02:33.709Z,101297.84
2023-01-29T15:07:39.510Z,101307.31
2023-01-29T15:12:50.530Z,101305.16
2023-01-29T15:18:10.661Z,101289.72
2023-01-29T15:23:43.185Z,101283.03
2023-01-29T15:28:54.833Z,101272.84
2023-01-29T15:34:06.119Z,101276.34
2023-01-29T15:39:22.589Z,101270.41
2023-01-29T15:44:24.416Z,101260.41
2023-01-29T15:49:32.782Z,101257.47
2023-01-29T15:54:35.679Z,101252.59
2023-01-29T15:59:44.096Z,101251.94
2023-01-29T16:04:46.262Z,101245.13
2023-01-29T16:09:48.133Z,101237.69
2023-01-29T16:14:50.466Z,101238.03
2023-01-29T16:20:05.153Z,101226.50
2023-01-29T16:25:14.767Z,101217.38
2023-01-29T16:30:17.267Z,101216.47
2023-01-29T16:35:19.187Z,101207.03
2023-01-29T16:40:33.949Z,101210.28
2023-01-29T16:45:35.415Z,101206.28
2023-01-29T16:50:54.047Z,101201.56
2023-01-29T16:56:02.627Z,101206.00
2023-01-29T17:01:07.332Z,101205.94
2023-01-29T17:06:10.794Z,101195.28
2023-01-29T17:11:22.977Z,101192.94
2023-01-29T17:16:35.029Z,101187.50
2023-01-29T17:21:36.502Z,101186.41
2023-01-29T17:26:38.863Z,101171.59
2023-01-29T17:31:40.593Z,101178.19
2023-01-29T17:36:42.763Z,101178.91
2023-01-29T17:41:47.605Z,101179.84
2023-01-29T17:46:49.724Z,101180.59
2023-01-29T17:51:52.336Z,101185.16
2023-01-29T17:56:54.432Z,101181.75
2023-01-29T18:01:55.897Z,101174.81
2023-01-29T18:06:57.895Z,101183.66
2023-01-29T18:11:59.337Z,101167.09
2023-01-29T18:17:00.767Z,101170.53
2023-01-29T18:22:02.177Z,101161.09
2023-01-29T18:27:03.653Z,101153.38
2023-01-29T18:32:05.538Z,101148.25
2023-01-29T18:37:06.983Z,101144.59
2023-01-29T18:42:08.399Z,101154.41
2023-01-29T18:47:09.953Z,101139.88
2023-01-29T18:52:11.381Z,101132.72
2023-01-29T18:57:15.305Z,101120.72
2023-01-29T19:02:34.773Z,101109.22
2023-01-29T19:07:36.667Z,101101.00
2023-01-29T19:12:42.128Z,101103.41
2023-01-29T19:17:43.553Z,101096.59
2023-01-29T19:22:44.967Z,101094.09
2023-01-29T19:27:46.422Z,101086.22
2023-01-29T19:32:47.852Z,101078.00
2023-01-29T19:37:49.333Z,101067.94
2023-01-29T19:42:55.021Z,101073.25
2023-01-29T19:47:56.598Z,101069.44
2023-01-29T19:52:59.228Z,101080.16
2023-01-29T19:58:00.715Z,101082.28
2023-01-29T20:03:02.228Z,101070.63
2023-01-29T20:08:03.654Z,101087.97
2023-01-29T20:13:05.961Z,101075.09
2023-01-29T20:18:13.002Z,101065.44
2023-01-29T20:23:25.010Z,101057.19
2023-01-29T20:28:37.323Z,101048.41
2023-01-29T20:33:39.601Z,101043.16
2023-01-29T20:38:41.181Z,101047.22
2023-01-29T20:43:43.810Z,101039.94
2023-01-29T20:48:45.144Z,101034.88
2023-01-29T20:53:47.936Z,101036.47
2023-01-29T20:58:49.510Z,101033.00
2023-01-29T21:03:50.956Z,101009.38
2023-01-29T21:08:52.380Z,100986.47
2023-01-29T21:13:57.512Z,100968.28
2023-01-29T21:18:59.051Z,100970.44
2023-01-29T21:24:00.508Z,100961.25
2023-01-29T21:29:01.914Z,100944.78
2023-01-29T21:34:04.721Z,100940.44
2023-01-29T21:39:16.498Z,100919.19
2023-01-29T21:44:18.036Z,100893.03
2023-01-29T21:49:19.472Z,100887.78
2023-01-29T21:54:20.895Z,100864.28
2023-01-29T21:59:22.307Z,100861.84
2023-01-29T22:04:23.729Z,100852.13
2023-01-29T22:09:25.153Z,100849.50
2023-01-29T22:14:26.773Z,100825.97
2023-01-29T22:19:29.357Z,100829.69
2023-01-29T22:24:30.704Z,100818.09
2023-01-29T22:29:32.107Z,100804.41
2023-01-29T22:34:34.126Z,100797.91
2023-01-29T22:39:35.534Z,100782.88
2023-01-29T22:44:36.959Z,100774.50
2023-01-29T22:49:38.379Z,100768.56
2023-01-29T22:54:42.856Z,100759.66
2023-01-29T22:59:44.287Z,100750.16
2023-01-29T23:04:45.769Z,100736.03
2023-01-29T23:09:47.196Z,100734.19
2023-01-29T23:14:48.634Z,100715.44
2023-01-29T23:19:50.172Z,100713.69
2023-01-29T23:24:51.749Z,100724.09
2023-01-29T23:29:53.170Z,100700.22
2023-01-29T23:34:54.607Z,100675.47
2023-01-29T23:39:56.082Z,100661.41
2023-01-29T23:44:57.517Z,100642.78
2023-01-29T23:49:58.939Z,100650.09
2023-01-29T23:55:00.372Z,100640.25
